Time;durP1;ratioP1;P1;durP2;ratioP2;P2;SDS_P1;SDS_P2;PMS_P1;PMS_P2;Temp;Humidity;BMP_temperature;BMP_pressure;BME280_temperature;BME280_humidity;BME280_pressure;Samples;Min_cycle;Max_cycle;Signal;HPM_P1;HPM_P2
2022/06/06 00:00:31;;;;;;;5.4;4.349999;;;;;;;13.78;98.28516;95507.11;;;;
2022/06/06 00:01:31;;;;;;;5.1;4.6;;;;;;;13.61;98.18066;95484.48;;;;
2022/06/06 00:02:32;;;;;;;5.1;4.6;;;;;;;13.61;98.18066;95484.48;;;;
2022/06/06 00:03:32;;;;;;;5.1;4.6;;;;;;;13.61;98.18066;95484.48;;;;
2022/06/06 00:04:33;;;;;;;5.1;4.6;;;;;;;13.61;98.18066;95484.48;;;;
2022/06/06 00:05:36;;;;;;;5.1;4.6;;;;;;;13.61;98.18066;95484.48;;;;
2022/06/06 00:06:39;;;;;;;5.1;4.6;;;;;;;13.61;98.18066;95484.48;;;;
2022/06/06 00:07:40;;;;;;;5.1;4.6;;;;;;;13.61;98.18066;95484.48;;;;
2022/06/06 00:08:41;;;;;;;5.1;4.6;;;;;;;13.61;98.18066;95484.48;;;;
2022/06/06 00:09:42;;;;;;;5.1;4.6;;;;;;;13.61;98.18066;95484.48;;;;
2022/06/06 00:10:42;;;;;;;5.1;4.6;;;;;;;13.61;98.18066;95484.48;;;;
2022/06/06 00:11:46;;;;;;;5.1;4.6;;;;;;;13.61;98.18066;95484.48;;;;
2022/06/06 00:12:46;;;;;;;5.15;4.65;;;;;;;13.5;98.36035;95480.44;;;;
2022/06/06 00:13:47;;;;;;;5.15;4.65;;;;;;;13.5;98.36035;95480.44;;;;
2022/06/06 00:14:47;;;;;;;5.15;4.65;;;;;;;13.5;98.36035;95480.44;;;;
2022/06/06 00:15:48;;;;;;;5.15;4.65;;;;;;;13.5;98.36035;95480.44;;;;
2022/06/06 00:16:48;;;;;;;5.15;4.65;;;;;;;13.5;98.36035;95480.44;;;;
2022/06/06 00:17:49;;;;;;;5.15;4.65;;;;;;;13.5;98.36035;95480.44;;;;
2022/06/06 00:18:49;;;;;;;5.15;4.65;;;;;;;13.5;98.36035;95480.44;;;;
2022/06/06 00:19:50;;;;;;;5.15;4.65;;;;;;;13.5;98.36035;95480.44;;;;
2022/06/06 00:20:50;;;;;;;5.15;4.65;;;;;;;13.5;98.36035;95480.44;;;;
2022/06/06 00:21:51;;;;;;;5.15;4.65;;;;;;;13.5;98.36035;95480.44;;;;
2022/06/06 00:22:52;;;;;;;5.349999;4.849999;;;;;;;13.47;98.66602;95476.9;;;;
2022/06/06 00:23:54;;;;;;;5.349999;4.849999;;;;;;;13.47;98.66602;95476.9;;;;
2022/06/06 00:24:54;;;;;;;5.349999;4.849999;;;;;;;13.47;98.66602;95476.9;;;;
2022/06/06 00:25:56;;;;;;;5.349999;4.849999;;;;;;;13.47;98.66602;95476.9;;;;
2022/06/06 00:26:56;;;;;;;5.349999;4.849999;;;;;;;13.47;98.66602;95476.9;;;;
2022/06/06 00:27:57;;;;;;;5.349999;4.849999;;;;;;;13.47;98.66602;95476.9;;;;
2022/06/06 00:28:57;;;;;;;5.349999;4.849999;;;;;;;13.47;98.66602;95476.9;;;;
2022/06/06 00:29:58;;;;;;;5.349999;4.849999;;;;;;;13.47;98.66602;95476.9;;;;
2022/06/06 00:34:48;;;;;;;5.349999;4.849999;;;;;;;13.47;98.66602;95476.9;;;;
2022/06/06 00:35:49;;;;;;;5.749999;5;;;;;;;13.34;98.44336;95476.17;;;;
2022/06/06 00:36:49;;;;;;;5.749999;5;;;;;;;13.34;98.44336;95476.17;;;;
2022/06/06 00:37:50;;;;;;;5.749999;5;;;;;;;13.34;98.44336;95476.17;;;;
2022/06/06 00:38:51;;;;;;;5.749999;5;;;;;;;13.34;98.44336;95476.17;;;;
2022/06/06 00:39:52;;;;;;;5.749999;5;;;;;;;13.34;98.44336;95476.17;;;;
2022/06/06 00:40:53;;;;;;;5.749999;5;;;;;;;13.34;98.44336;95476.17;;;;
2022/06/06 00:41:54;;;;;;;5.749999;5;;;;;;;13.34;98.44336;95476.17;;;;
2022/06/06 00:42:55;;;;;;;5.749999;5;;;;;;;13.34;98.44336;95476.17;;;;
2022/06/06 00:43:56;;;;;;;5.749999;5;;;;;;;13.34;98.44336;95476.17;;;;
2022/06/06 00:45:07;;;;;;;7.05;5.3;;;;;;;13.29;98.64746;95492.86;;;;
2022/06/06 00:46:28;;;;;;;7.05;5.3;;;;;;;13.29;98.64746;95492.86;;;;
2022/06/06 00:47:29;;;;;;;7.05;5.3;;;;;;;13.29;98.64746;95492.86;;;;
2022/06/06 00:48:30;;;;;;;7.05;5.3;;;;;;;13.29;98.64746;95492.86;;;;
2022/06/06 00:49:38;;;;;;;7.05;5.3;;;;;;;13.29;98.64746;95492.86;;;;
2022/06/06 00:50:42;;;;;;;7.05;5.3;;;;;;;13.29;98.64746;95492.86;;;;
2022/06/06 00:51:51;;;;;;;7.05;5.3;;;;;;;13.29;98.64746;95492.86;;;;
2022/06/06 00:52:53;;;;;;;7.05;5.3;;;;;;;13.29;98.64746;95492.86;;;;
2022/06/06 00:53:55;;;;;;;7.05;5.3;;;;;;;13.29;98.64746;95492.86;;;;
2022/06/06 00:54:57;;;;;;;6.35;5.75;;;;;;;13.21;98.74902;95502.87;;;;
2022/06/06 00:56:01;;;;;;;6.35;5.75;;;;;;;13.21;98.74902;95502.87;;;;
2022/06/06 00:57:13;;;;;;;6.35;5.75;;;;;;;13.21;98.74902;95502.87;;;;
2022/06/06 00:58:18;;;;;;;6.35;5.75;;;;;;;13.21;98.74902;95502.87;;;;
2022/06/06 00:59:22;;;;;;;6.35;5.75;;;;;;;13.21;98.74902;95502.87;;;;
2022/06/06 01:00:27;;;;;;;6.35;5.75;;;;;;;13.21;98.74902;95502.87;;;;
2022/06/06 01:01:28;;;;;;;6.35;5.75;;;;;;;13.21;98.74902;95502.87;;;;
2022/06/06 01:02:30;;;;;;;6.35;5.75;;;;;;;13.21;98.74902;95502.87;;;;
2022/06/06 01:03:30;;;;;;;6.35;5.75;;;;;;;13.21;98.74902;95502.87;;;;
2022/06/06 01:04:31;;;;;;;6.35;5.75;;;;;;;13.21;98.74902;95502.87;;;;
2022/06/06 01:05:33;;;;;;;5.9;5.349999;;;;;;;13.16;98.7793;95499.16;;;;
2022/06/06 01:06:35;;;;;;;5.9;5.349999;;;;;;;13.16;98.7793;95499.16;;;;
2022/06/06 01:07:39;;;;;;;5.9;5.349999;;;;;;;13.16;98.7793;95499.16;;;;
2022/06/06 01:08:39;;;;;;;5.9;5.349999;;;;;;;13.16;98.7793;95499.16;;;;
2022/06/06 01:09:42;;;;;;;5.9;5.349999;;;;;;;13.16;98.7793;95499.16;;;;
2022/06/06 01:10:43;;;;;;;5.9;5.349999;;;;;;;13.16;98.7793;95499.16;;;;
2022/06/06 01:11:43;;;;;;;5.9;5.349999;;;;;;;13.16;98.7793;95499.16;;;;
2022/06/06 01:12:47;;;;;;;5.9;5.349999;;;;;;;13.16;98.7793;95499.16;;;;
2022/06/06 01:13:50;;;;;;;5.9;5.349999;;;;;;;13.16;98.7793;95499.16;;;;
2022/06/06 01:14:52;;;;;;;5.9;5.349999;;;;;;;13.16;98.7793;95499.16;;;;
2022/06/06 01:15:57;;;;;;;5.9;5.349999;;;;;;;13.16;98.7793;95499.16;;;;
2022/06/06 01:17:11;;;;;;;5.900001;5.05;;;;;;;12.99;98.47363;95504.3;;;;
2022/06/06 01:18:22;;;;;;;5.900001;5.05;;;;;;;12.99;98.47363;95504.3;;;;
2022/06/06 01:19:34;;;;;;;5.900001;5.05;;;;;;;12.99;98.47363;95504.3;;;;
2022/06/06 01:20:53;;;;;;;5.900001;5.05;;;;;;;12.99;98.47363;95504.3;;;;
2022/06/06 01:22:25;;;;;;;5.900001;5.05;;;;;;;12.99;98.47363;95504.3;;;;
2022/06/06 01:23:48;;;;;;;5.900001;5.05;;;;;;;12.99;98.47363;95504.3;;;;
2022/06/06 01:25:04;;;;;;;5.900001;5.05;;;;;;;12.99;98.47363;95504.3;;;;
2022/06/06 01:26:23;;;;;;;5.900001;5.05;;;;;;;12.99;98.47363;95504.3;;;;
2022/06/06 01:27:44;;;;;;;6.9;5.299999;;;;;;;12.88;98.48047;95507.7;;;;
2022/06/06 01:28:53;;;;;;;6.9;5.299999;;;;;;;12.88;98.48047;95507.7;;;;
2022/06/06 01:30:01;;;;;;;6.9;5.299999;;;;;;;12.88;98.48047;95507.7;;;;
2022/06/06 01:31:07;;;;;;;6.9;5.299999;;;;;;;12.88;98.48047;95507.7;;;;
2022/06/06 01:32:12;;;;;;;6.9;5.299999;;;;;;;12.88;98.48047;95507.7;;;;
2022/06/06 01:33:16;;;;;;;6.9;5.299999;;;;;;;12.88;98.48047;95507.7;;;;
2022/06/06 01:34:17;;;;;;;6.9;5.299999;;;;;;;12.88;98.48047;95507.7;;;;
2022/06/06 01:35:23;;;;;;;6.9;5.299999;;;;;;;12.88;98.48047;95507.7;;;;
2022/06/06 01:36:30;;;;;;;6.9;5.299999;;;;;;;12.88;98.48047;95507.7;;;;
2022/06/06 01:37:32;;;;;;;6.5;5.349999;;;;;;;12.68;98.2666;95504.33;;;;
2022/06/06 01:38:37;;;;;;;6.5;5.349999;;;;;;;12.68;98.2666;95504.33;;;;
2022/06/06 01:39:37;;;;;;;6.5;5.349999;;;;;;;12.68;98.2666;95504.33;;;;
2022/06/06 01:40:38;;;;;;;6.5;5.349999;;;;;;;12.68;98.2666;95504.33;;;;
2022/06/06 01:41:44;;;;;;;6.5;5.349999;;;;;;;12.68;98.2666;95504.33;;;;
2022/06/06 01:43:04;;;;;;;6.5;5.349999;;;;;;;12.68;98.2666;95504.33;;;;
2022/06/06 01:44:09;;;;;;;6.5;5.349999;;;;;;;12.68;98.2666;95504.33;;;;
2022/06/06 01:45:18;;;;;;;6.5;5.349999;;;;;;;12.68;98.2666;95504.33;;;;
2022/06/06 01:46:26;;;;;;;6.5;5.349999;;;;;;;12.68;98.2666;95504.33;;;;
2022/06/06 01:47:33;;;;;;;6.5;5.349999;;;;;;;12.68;98.2666;95504.33;;;;
2022/06/06 01:48:38;;;;;;;5.699999;5.2;;;;;;;12.56;98.35547;95504.36;;;;
2022/06/06 01:49:41;;;;;;;5.699999;5.2;;;;;;;12.56;98.35547;95504.36;;;;
2022/06/06 01:50:43;;;;;;;5.699999;5.2;;;;;;;12.56;98.35547;95504.36;;;;
2022/06/06 01:51:44;;;;;;;5.699999;5.2;;;;;;;12.56;98.35547;95504.36;;;;
2022/06/06 01:52:57;;;;;;;5.699999;5.2;;;;;;;12.56;98.35547;95504.36;;;;
2022/06/06 01:54:01;;;;;;;5.699999;5.2;;;;;;;12.56;98.35547;95504.36;;;;
2022/06/06 01:55:02;;;;;;;5.699999;5.2;;;;;;;12.56;98.35547;95504.36;;;;
2022/06/06 01:56:04;;;;;;;5.699999;5.2;;;;;;;12.56;98.35547;95504.36;;;;
2022/06/06 01:57:06;;;;;;;5.699999;5.2;;;;;;;12.56;98.35547;95504.36;;;;
2022/06/06 01:58:12;;;;;;;5.699999;5.2;;;;;;;12.56;98.35547;95504.36;;;;
2022/06/06 01:59:18;;;;;;;6.150001;5.55;;;;;;;12.39;98.23242;95505.52;;;;
2022/06/06 02:00:18;;;;;;;6.150001;5.55;;;;;;;12.39;98.23242;95505.52;;;;
2022/06/06 02:01:20;;;;;;;6.150001;5.55;;;;;;;12.39;98.23242;95505.52;;;;
2022/06/06 02:02:20;;;;;;;6.150001;5.55;;;;;;;12.39;98.23242;95505.52;;;;
2022/06/06 02:03:21;;;;;;;6.150001;5.55;;;;;;;12.39;98.23242;95505.52;;;;
2022/06/06 02:04:21;;;;;;;6.150001;5.55;;;;;;;12.39;98.23242;95505.52;;;;
2022/06/06 02:05:22;;;;;;;6.150001;5.55;;;;;;;12.39;98.23242;95505.52;;;;
2022/06/06 02:06:22;;;;;;;6.150001;5.55;;;;;;;12.39;98.23242;95505.52;;;;
2022/06/06 02:07:23;;;;;;;6.150001;5.55;;;;;;;12.39;98.23242;95505.52;;;;
2022/06/06 02:08:23;;;;;;;6.150001;5.55;;;;;;;12.39;98.23242;95505.52;;;;
2022/06/06 02:09:26;;;;;;;6.150001;5.55;;;;;;;12.39;98.23242;95505.52;;;;
2022/06/06 02:10:26;;;;;;;6.6;5.4;;;;;;;12.28;98.37012;95500.42;;;;
2022/06/06 02:11:28;;;;;;;6.6;5.4;;;;;;;12.28;98.37012;95500.42;;;;
2022/06/06 02:12:28;;;;;;;6.6;5.4;;;;;;;12.28;98.37012;95500.42;;;;
2022/06/06 02:13:28;;;;;;;6.6;5.4;;;;;;;12.28;98.37012;95500.42;;;;
2022/06/06 02:14:29;;;;;;;6.6;5.4;;;;;;;12.28;98.37012;95500.42;;;;
2022/06/06 02:15:29;;;;;;;6.6;5.4;;;;;;;12.28;98.37012;95500.42;;;;
2022/06/06 02:16:30;;;;;;;6.6;5.4;;;;;;;12.28;98.37012;95500.42;;;;
2022/06/06 02:17:31;;;;;;;6.6;5.4;;;;;;;12.28;98.37012;95500.42;;;;
2022/06/06 02:18:33;;;;;;;6.6;5.4;;;;;;;12.28;98.37012;95500.42;;;;
2022/06/06 02:19:33;;;;;;;6.6;5.4;;;;;;;12.28;98.37012;95500.42;;;;
2022/06/06 02:20:34;;;;;;;7.4;6.4;;;;;;;12.12;98.2998;95497.91;;;;
2022/06/06 02:21:36;;;;;;;7.4;6.4;;;;;;;12.12;98.2998;95497.91;;;;
2022/06/06 02:22:37;;;;;;;7.4;6.4;;;;;;;12.12;98.2998;95497.91;;;;
2022/06/06 02:23:38;;;;;;;7.4;6.4;;;;;;;12.12;98.2998;95497.91;;;;
2022/06/06 02:24:38;;;;;;;7.4;6.4;;;;;;;12.12;98.2998;95497.91;;;;
2022/06/06 02:25:39;;;;;;;7.4;6.4;;;;;;;12.12;98.2998;95497.91;;;;
2022/06/06 02:26:41;;;;;;;7.4;6.4;;;;;;;12.12;98.2998;95497.91;;;;
2022/06/06 02:27:42;;;;;;;7.4;6.4;;;;;;;12.12;98.2998;95497.91;;;;
2022/06/06 02:28:43;;;;;;;7.4;6.4;;;;;;;12.12;98.2998;95497.91;;;;
2022/06/06 02:29:44;;;;;;;7.4;6.4;;;;;;;12.12;98.2998;95497.91;;;;
2022/06/06 02:30:44;;;;;;;7.4;6.4;;;;;;;12.12;98.2998;95497.91;;;;
2022/06/06 02:31:45;;;;;;;6.25;5.649999;;;;;;;12.05;98.47852;95503.75;;;;
2022/06/06 02:32:45;;;;;;;6.25;5.649999;;;;;;;12.05;98.47852;95503.75;;;;
2022/06/06 02:33:46;;;;;;;6.25;5.649999;;;;;;;12.05;98.47852;95503.75;;;;
2022/06/06 02:34:48;;;;;;;6.25;5.649999;;;;;;;12.05;98.47852;95503.75;;;;
2022/06/06 02:35:48;;;;;;;6.25;5.649999;;;;;;;12.05;98.47852;95503.75;;;;
2022/06/06 02:36:49;;;;;;;6.25;5.649999;;;;;;;12.05;98.47852;95503.75;;;;
2022/06/06 02:37:49;;;;;;;6.25;5.649999;;;;;;;12.05;98.47852;95503.75;;;;
2022/06/06 02:38:51;;;;;;;6.25;5.649999;;;;;;;12.05;98.47852;95503.75;;;;
2022/06/06 02:39:52;;;;;;;6.25;5.649999;;;;;;;12.05;98.47852;95503.75;;;;
2022/06/06 02:40:52;;;;;;;6.25;5.649999;;;;;;;12.05;98.47852;95503.75;;;;
2022/06/06 02:41:53;;;;;;;6.4;5.8;;;;;;;11.89;98.37891;95506.42;;;;
2022/06/06 02:42:53;;;;;;;6.4;5.8;;;;;;;11.89;98.37891;95506.42;;;;
2022/06/06 02:43:56;;;;;;;6.4;5.8;;;;;;;11.89;98.37891;95506.42;;;;
2022/06/06 02:44:56;;;;;;;6.4;5.8;;;;;;;11.89;98.37891;95506.42;;;;
2022/06/06 02:45:57;;;;;;;6.4;5.8;;;;;;;11.89;98.37891;95506.42;;;;
2022/06/06 02:46:57;;;;;;;6.4;5.8;;;;;;;11.89;98.37891;95506.42;;;;
2022/06/06 02:47:58;;;;;;;6.4;5.8;;;;;;;11.89;98.37891;95506.42;;;;
2022/06/06 02:48:59;;;;;;;6.4;5.8;;;;;;;11.89;98.37891;95506.42;;;;
2022/06/06 02:49:59;;;;;;;6.4;5.8;;;;;;;11.89;98.37891;95506.42;;;;
2022/06/06 02:51:00;;;;;;;6.4;5.8;;;;;;;11.89;98.37891;95506.42;;;;
2022/06/06 02:52:00;;;;;;;6.4;5.8;;;;;;;11.89;98.37891;95506.42;;;;
2022/06/06 02:53:03;;;;;;;6.3;5.649999;;;;;;;11.82;98.53516;95517.97;;;;
2022/06/06 02:54:04;;;;;;;6.3;5.649999;;;;;;;11.82;98.53516;95517.97;;;;
2022/06/06 02:55:05;;;;;;;6.3;5.649999;;;;;;;11.82;98.53516;95517.97;;;;
2022/06/06 02:56:08;;;;;;;6.3;5.649999;;;;;;;11.82;98.53516;95517.97;;;;
2022/06/06 02:57:08;;;;;;;6.3;5.649999;;;;;;;11.82;98.53516;95517.97;;;;
2022/06/06 02:58:09;;;;;;;6.3;5.649999;;;;;;;11.82;98.53516;95517.97;;;;
2022/06/06 02:59:10;;;;;;;6.3;5.649999;;;;;;;11.82;98.53516;95517.97;;;;
2022/06/06 03:00:13;;;;;;;6.3;5.649999;;;;;;;11.82;98.53516;95517.97;;;;
2022/06/06 03:01:16;;;;;;;6.3;5.649999;;;;;;;11.82;98.53516;95517.97;;;;
2022/06/06 03:02:17;;;;;;;6.3;5.649999;;;;;;;11.82;98.53516;95517.97;;;;
2022/06/06 03:03:17;;;;;;;7.849999;6.400001;;;;;;;11.71;98.54199;95524.05;;;;
2022/06/06 03:04:18;;;;;;;7.849999;6.400001;;;;;;;11.71;98.54199;95524.05;;;;
2022/06/06 03:05:19;;;;;;;7.849999;6.400001;;;;;;;11.71;98.54199;95524.05;;;;
2022/06/06 03:06:20;;;;;;;7.849999;6.400001;;;;;;;11.71;98.54199;95524.05;;;;
2022/06/06 03:07:33;;;;;;;7.849999;6.400001;;;;;;;11.71;98.54199;95524.05;;;;
2022/06/06 03:08:46;;;;;;;7.849999;6.400001;;;;;;;11.71;98.54199;95524.05;;;;
2022/06/06 03:10:02;;;;;;;7.849999;6.400001;;;;;;;11.71;98.54199;95524.05;;;;
2022/06/06 03:11:15;;;;;;;7.849999;6.400001;;;;;;;11.71;98.54199;95524.05;;;;
2022/06/06 03:12:33;;;;;;;7.849999;6.400001;;;;;;;11.71;98.54199;95524.05;;;;
2022/06/06 03:13:46;;;;;;;7.700001;7;;;;;;;11.79;99.33203;95538.28;;;;
2022/06/06 03:15:03;;;;;;;7.700001;7;;;;;;;11.79;99.33203;95538.28;;;;
2022/06/06 03:21:42;;;;;;;7.700001;7;;;;;;;11.79;99.33203;95538.28;;;;
2022/06/06 03:22:47;;;;;;;7.700001;7;;;;;;;11.79;99.33203;95538.28;;;;
2022/06/06 03:24:05;;;;;;;7.700001;7;;;;;;;11.79;99.33203;95538.28;;;;
2022/06/06 03:25:19;;;;;;;7.3;6.6;;;;;;;11.8;99.36426;95536.03;;;;
2022/06/06 03:26:27;;;;;;;7.3;6.6;;;;;;;11.8;99.36426;95536.03;;;;
2022/06/06 03:27:43;;;;;;;7.3;6.6;;;;;;;11.8;99.36426;95536.03;;;;
2022/06/06 03:28:51;;;;;;;7.3;6.6;;;;;;;11.8;99.36426;95536.03;;;;
2022/06/06 03:30:06;;;;;;;7.3;6.6;;;;;;;11.8;99.36426;95536.03;;;;
2022/06/06 03:31:16;;;;;;;7.3;6.6;;;;;;;11.8;99.36426;95536.03;;;;
2022/06/06 03:32:27;;;;;;;7.3;6.6;;;;;;;11.8;99.36426;95536.03;;;;
2022/06/06 03:33:37;;;;;;;7.3;6.6;;;;;;;11.8;99.36426;95536.03;;;;
2022/06/06 03:34:46;;;;;;;7.3;6.6;;;;;;;11.8;99.36426;95536.03;;;;
2022/06/06 03:36:00;;;;;;;7.2;6.500001;;;;;;;11.86;99.48633;95547.92;;;;
2022/06/06 03:37:08;;;;;;;7.2;6.500001;;;;;;;11.86;99.48633;95547.92;;;;
2022/06/06 03:38:16;;;;;;;7.2;6.500001;;;;;;;11.86;99.48633;95547.92;;;;
2022/06/06 03:39:26;;;;;;;7.2;6.500001;;;;;;;11.86;99.48633;95547.92;;;;
2022/06/06 03:40:34;;;;;;;7.2;6.500001;;;;;;;11.86;99.48633;95547.92;;;;
2022/06/06 03:41:43;;;;;;;7.2;6.500001;;;;;;;11.86;99.48633;95547.92;;;;
2022/06/06 03:43:00;;;;;;;7.2;6.500001;;;;;;;11.86;99.48633;95547.92;;;;
2022/06/06 03:44:06;;;;;;;7.2;6.500001;;;;;;;11.86;99.48633;95547.92;;;;
2022/06/06 03:45:17;;;;;;;7.2;6.500001;;;;;;;11.86;99.48633;95547.92;;;;
2022/06/06 03:46:26;;;;;;;8.45;7.65;;;;;;;12.07;99.87402;95555.62;;;;
2022/06/06 03:47:34;;;;;;;8.45;7.65;;;;;;;12.07;99.87402;95555.62;;;;
2022/06/06 03:48:45;;;;;;;8.45;7.65;;;;;;;12.07;99.87402;95555.62;;;;
2022/06/06 03:49:51;;;;;;;8.45;7.65;;;;;;;12.07;99.87402;95555.62;;;;
2022/06/06 03:51:02;;;;;;;8.45;7.65;;;;;;;12.07;99.87402;95555.62;;;;
2022/06/06 03:52:09;;;;;;;8.45;7.65;;;;;;;12.07;99.87402;95555.62;;;;
2022/06/06 03:53:20;;;;;;;8.45;7.65;;;;;;;12.07;99.87402;95555.62;;;;
2022/06/06 03:54:38;;;;;;;8.45;7.65;;;;;;;12.07;99.87402;95555.62;;;;
2022/06/06 03:55:47;;;;;;;8.45;7.65;;;;;;;12.07;99.87402;95555.62;;;;
2022/06/06 03:57:00;;;;;;;7.649999;6.95;;;;;;;12.28;100;95553.44;;;;
2022/06/06 03:58:11;;;;;;;7.649999;6.95;;;;;;;12.28;100;95553.44;;;;
2022/06/06 03:59:16;;;;;;;7.649999;6.95;;;;;;;12.28;100;95553.44;;;;
2022/06/06 04:00:18;;;;;;;7.649999;6.95;;;;;;;12.28;100;95553.44;;;;
2022/06/06 04:01:21;;;;;;;7.649999;6.95;;;;;;;12.28;100;95553.44;;;;
2022/06/06 04:02:23;;;;;;;7.649999;6.95;;;;;;;12.28;100;95553.44;;;;
2022/06/06 04:03:28;;;;;;;7.649999;6.95;;;;;;;12.28;100;95553.44;;;;
2022/06/06 04:04:31;;;;;;;7.649999;6.95;;;;;;;12.28;100;95553.44;;;;
2022/06/06 04:05:32;;;;;;;7.649999;6.95;;;;;;;12.28;100;95553.44;;;;
2022/06/06 04:06:35;;;;;;;7.649999;6.95;;;;;;;12.28;100;95553.44;;;;
2022/06/06 04:07:36;;;;;;;9.299999;8;;;;;;;12.53;100;95564.84;;;;
2022/06/06 04:08:37;;;;;;;9.299999;8;;;;;;;12.53;100;95564.84;;;;
2022/06/06 04:09:37;;;;;;;9.299999;8;;;;;;;12.53;100;95564.84;;;;
2022/06/06 04:10:38;;;;;;;9.299999;8;;;;;;;12.53;100;95564.84;;;;
2022/06/06 04:11:46;;;;;;;9.299999;8;;;;;;;12.53;100;95564.84;;;;
2022/06/06 04:13:00;;;;;;;9.299999;8;;;;;;;12.53;100;95564.84;;;;
2022/06/06 04:14:12;;;;;;;9.299999;8;;;;;;;12.53;100;95564.84;;;;
2022/06/06 04:15:30;;;;;;;9.299999;8;;;;;;;12.53;100;95564.84;;;;
2022/06/06 04:16:41;;;;;;;9.299999;8;;;;;;;12.53;100;95564.84;;;;
2022/06/06 04:17:50;;;;;;;8.15;7.45;;;;;;;12.82;100;95572.26;;;;
2022/06/06 04:19:04;;;;;;;8.15;7.45;;;;;;;12.82;100;95572.26;;;;
2022/06/06 04:20:17;;;;;;;8.15;7.45;;;;;;;12.82;100;95572.26;;;;
2022/06/06 04:21:23;;;;;;;8.15;7.45;;;;;;;12.82;100;95572.26;;;;
2022/06/06 04:22:39;;;;;;;8.15;7.45;;;;;;;12.82;100;95572.26;;;;
2022/06/06 04:23:51;;;;;;;8.15;7.45;;;;;;;12.82;100;95572.26;;;;
2022/06/06 04:25:14;;;;;;;8.15;7.45;;;;;;;12.82;100;95572.26;;;;
2022/06/06 04:26:30;;;;;;;8.15;7.45;;;;;;;12.82;100;95572.26;;;;
2022/06/06 04:27:38;;;;;;;8.15;7.45;;;;;;;12.82;100;95572.26;;;;
2022/06/06 04:28:47;;;;;;;6.5;5.9;;;;;;;12.9;100;95571.84;;;;
2022/06/06 04:29:56;;;;;;;6.5;5.9;;;;;;;12.9;100;95571.84;;;;
2022/06/06 04:31:01;;;;;;;6.5;5.9;;;;;;;12.9;100;95571.84;;;;
2022/06/06 04:32:12;;;;;;;6.5;5.9;;;;;;;12.9;100;95571.84;;;;
2022/06/06 04:33:23;;;;;;;6.5;5.9;;;;;;;12.9;100;95571.84;;;;
2022/06/06 04:34:35;;;;;;;6.5;5.9;;;;;;;12.9;100;95571.84;;;;
2022/06/06 04:35:44;;;;;;;6.5;5.9;;;;;;;12.9;100;95571.84;;;;
2022/06/06 04:36:59;;;;;;;6.5;5.9;;;;;;;12.9;100;95571.84;;;;
2022/06/06 04:38:05;;;;;;;6.5;5.9;;;;;;;12.9;100;95571.84;;;;
2022/06/06 04:39:17;;;;;;;7.849999;7.15;;;;;;;13.08;100;95572.03;;;;
2022/06/06 04:40:25;;;;;;;7.849999;7.15;;;;;;;13.08;100;95572.03;;;;
2022/06/06 04:41:31;;;;;;;7.849999;7.15;;;;;;;13.08;100;95572.03;;;;
2022/06/06 04:42:39;;;;;;;7.849999;7.15;;;;;;;13.08;100;95572.03;;;;
2022/06/06 04:43:45;;;;;;;7.849999;7.15;;;;;;;13.08;100;95572.03;;;;
2022/06/06 04:44:50;;;;;;;7.849999;7.15;;;;;;;13.08;100;95572.03;;;;
2022/06/06 04:45:57;;;;;;;7.849999;7.15;;;;;;;13.08;100;95572.03;;;;
2022/06/06 04:47:03;;;;;;;7.849999;7.15;;;;;;;13.08;100;95572.03;;;;
2022/06/06 04:48:12;;;;;;;7.849999;7.15;;;;;;;13.08;100;95572.03;;;;
2022/06/06 04:49:13;;;;;;;7.849999;7.15;;;;;;;13.08;100;95572.03;;;;
2022/06/06 04:50:14;;;;;;;6.950001;6.349999;;;;;;;13.3;100;95571.47;;;;
2022/06/06 04:51:19;;;;;;;6.950001;6.349999;;;;;;;13.3;100;95571.47;;;;
2022/06/06 04:52:22;;;;;;;6.950001;6.349999;;;;;;;13.3;100;95571.47;;;;
2022/06/06 04:53:23;;;;;;;6.950001;6.349999;;;;;;;13.3;100;95571.47;;;;
2022/06/06 04:54:26;;;;;;;6.950001;6.349999;;;;;;;13.3;100;95571.47;;;;
2022/06/06 04:55:32;;;;;;;6.950001;6.349999;;;;;;;13.3;100;95571.47;;;;
2022/06/06 04:56:34;;;;;;;6.950001;6.349999;;;;;;;13.3;100;95571.47;;;;
2022/06/06 04:57:35;;;;;;;6.950001;6.349999;;;;;;;13.3;100;95571.47;;;;
2022/06/06 04:58:40;;;;;;;6.950001;6.349999;;;;;;;13.3;100;95571.47;;;;
2022/06/06 04:59:43;;;;;;;6.950001;6.349999;;;;;;;13.3;100;95571.47;;;;
2022/06/06 05:00:46;;;;;;;7.05;6.35;;;;;;;13.47;100;95585.67;;;;
2022/06/06 05:01:47;;;;;;;7.05;6.35;;;;;;;13.47;100;95585.67;;;;
2022/06/06 05:02:48;;;;;;;7.05;6.35;;;;;;;13.47;100;95585.67;;;;
2022/06/06 05:03:49;;;;;;;7.05;6.35;;;;;;;13.47;100;95585.67;;;;
2022/06/06 05:04:49;;;;;;;7.05;6.35;;;;;;;13.47;100;95585.67;;;;
2022/06/06 05:05:50;;;;;;;7.05;6.35;;;;;;;13.47;100;95585.67;;;;
2022/06/06 05:07:03;;;;;;;7.05;6.35;;;;;;;13.47;100;95585.67;;;;
2022/06/06 05:08:24;;;;;;;7.05;6.35;;;;;;;13.47;100;95585.67;;;;
2022/06/06 05:09:42;;;;;;;7.05;6.35;;;;;;;13.47;100;95585.67;;;;
2022/06/06 05:11:04;;;;;;;6.3;5.8;;;;;;;13.85;100;95590.31;;;;
2022/06/06 05:12:20;;;;;;;6.3;5.8;;;;;;;13.85;100;95590.31;;;;
2022/06/06 05:13:40;;;;;;;6.3;5.8;;;;;;;13.85;100;95590.31;;;;
2022/06/06 05:14:59;;;;;;;6.3;5.8;;;;;;;13.85;100;95590.31;;;;
2022/06/06 05:16:16;;;;;;;6.3;5.8;;;;;;;13.85;100;95590.31;;;;
2022/06/06 05:17:36;;;;;;;6.3;5.8;;;;;;;13.85;100;95590.31;;;;
2022/06/06 05:18:50;;;;;;;6.3;5.8;;;;;;;13.85;100;95590.31;;;;
2022/06/06 05:20:07;;;;;;;6.3;5.8;;;;;;;13.85;100;95590.31;;;;
2022/06/06 05:22:31;;;;;;;6.699998;5.649999;;;;;;;14.59;100;95591.11;;;;
2022/06/06 05:23:48;;;;;;;6.699998;5.649999;;;;;;;14.59;100;95591.11;;;;
2022/06/06 05:25:08;;;;;;;6.699998;5.649999;;;;;;;14.59;100;95591.11;;;;
2022/06/06 05:26:24;;;;;;;6.699998;5.649999;;;;;;;14.59;100;95591.11;;;;
2022/06/06 05:28:01;;;;;;;6.699998;5.649999;;;;;;;14.59;100;95591.11;;;;
2022/06/06 05:29:15;;;;;;;6.699998;5.649999;;;;;;;14.59;100;95591.11;;;;
2022/06/06 05:31:01;;;;;;;6.699998;5.649999;;;;;;;14.59;100;95591.11;;;;
2022/06/06 05:32:14;;;;;;;6.699998;5.649999;;;;;;;14.59;100;95591.11;;;;
2022/06/06 05:33:31;;;;;;;3.95;3.65;;;;;;;15.4;100;95597.02;;;;
2022/06/06 05:34:37;;;;;;;3.95;3.65;;;;;;;15.4;100;95597.02;;;;
2022/06/06 05:35:45;;;;;;;3.95;3.65;;;;;;;15.4;100;95597.02;;;;
2022/06/06 05:37:03;;;;;;;3.95;3.65;;;;;;;15.4;100;95597.02;;;;
2022/06/06 05:38:18;;;;;;;3.95;3.65;;;;;;;15.4;100;95597.02;;;;
2022/06/06 05:39:46;;;;;;;3.95;3.65;;;;;;;15.4;100;95597.02;;;;
2022/06/06 05:41:02;;;;;;;3.95;3.65;;;;;;;15.4;100;95597.02;;;;
2022/06/06 05:42:12;;;;;;;3.95;3.65;;;;;;;15.4;100;95597.02;;;;
2022/06/06 05:43:23;;;;;;;3.8;3.5;;;;;;;15.88;99.90918;95592.97;;;;
2022/06/06 05:44:38;;;;;;;3.8;3.5;;;;;;;15.88;99.90918;95592.97;;;;
2022/06/06 05:45:49;;;;;;;3.8;3.5;;;;;;;15.88;99.90918;95592.97;;;;
2022/06/06 05:46:58;;;;;;;3.8;3.5;;;;;;;15.88;99.90918;95592.97;;;;
2022/06/06 05:48:09;;;;;;;3.8;3.5;;;;;;;15.88;99.90918;95592.97;;;;
2022/06/06 05:49:23;;;;;;;3.8;3.5;;;;;;;15.88;99.90918;95592.97;;;;
2022/06/06 05:50:38;;;;;;;3.8;3.5;;;;;;;15.88;99.90918;95592.97;;;;
2022/06/06 05:51:58;;;;;;;3.8;3.5;;;;;;;15.88;99.90918;95592.97;;;;
2022/06/06 05:53:15;;;;;;;3.8;3.5;;;;;;;15.88;99.90918;95592.97;;;;
2022/06/06 05:54:32;;;;;;;2.9;2.7;;;;;;;16.28;99.86914;95593.32;;;;
2022/06/06 05:55:51;;;;;;;2.9;2.7;;;;;;;16.28;99.86914;95593.32;;;;
2022/06/06 05:57:16;;;;;;;2.9;2.7;;;;;;;16.28;99.86914;95593.32;;;;
2022/06/06 05:58:36;;;;;;;2.9;2.7;;;;;;;16.28;99.86914;95593.32;;;;
2022/06/06 05:59:48;;;;;;;2.9;2.7;;;;;;;16.28;99.86914;95593.32;;;;
2022/06/06 06:01:04;;;;;;;2.9;2.7;;;;;;;16.28;99.86914;95593.32;;;;
2022/06/06 06:02:21;;;;;;;2.9;2.7;;;;;;;16.28;99.86914;95593.32;;;;
2022/06/06 06:03:39;;;;;;;2.9;2.7;;;;;;;16.28;99.86914;95593.32;;;;
2022/06/06 06:05:01;;;;;;;2.9;2.7;;;;;;;16.71;99.94238;95575.42;;;;
2022/06/06 06:06:13;;;;;;;2.9;2.7;;;;;;;16.71;99.94238;95575.42;;;;
2022/06/06 06:07:22;;;;;;;2.9;2.7;;;;;;;16.71;99.94238;95575.42;;;;
2022/06/06 06:08:33;;;;;;;2.9;2.7;;;;;;;16.71;99.94238;95575.42;;;;
2022/06/06 06:09:55;;;;;;;2.9;2.7;;;;;;;16.71;99.94238;95575.42;;;;
2022/06/06 06:11:06;;;;;;;2.9;2.7;;;;;;;16.71;99.94238;95575.42;;;;
2022/06/06 06:12:20;;;;;;;2.9;2.7;;;;;;;16.71;99.94238;95575.42;;;;
2022/06/06 06:13:37;;;;;;;2.9;2.7;;;;;;;16.71;99.94238;95575.42;;;;
2022/06/06 06:14:50;;;;;;;2.9;2.7;;;;;;;16.71;99.94238;95575.42;;;;
2022/06/06 06:16:03;;;;;;;2.5;2.3;;;;;;;17.09;99.79102;95582.97;;;;
2022/06/06 06:17:06;;;;;;;2.5;2.3;;;;;;;17.09;99.79102;95582.97;;;;
2022/06/06 06:18:07;;;;;;;2.5;2.3;;;;;;;17.09;99.79102;95582.97;;;;
2022/06/06 06:19:13;;;;;;;2.5;2.3;;;;;;;17.09;99.79102;95582.97;;;;
2022/06/06 06:20:18;;;;;;;2.5;2.3;;;;;;;17.09;99.79102;95582.97;;;;
2022/06/06 06:21:24;;;;;;;2.5;2.3;;;;;;;17.09;99.79102;95582.97;;;;
2022/06/06 06:22:29;;;;;;;2.5;2.3;;;;;;;17.09;99.79102;95582.97;;;;
2022/06/06 06:23:37;;;;;;;2.5;2.3;;;;;;;17.09;99.79102;95582.97;;;;
2022/06/06 06:24:42;;;;;;;2.5;2.3;;;;;;;17.09;99.79102;95582.97;;;;
2022/06/06 06:25:44;;;;;;;2.5;2.3;;;;;;;17.09;99.79102;95582.97;;;;
2022/06/06 06:26:47;;;;;;;2.2;2;;;;;;;17.42;99.61426;95582.11;;;;
2022/06/06 06:27:48;;;;;;;2.2;2;;;;;;;17.42;99.61426;95582.11;;;;
2022/06/06 06:28:52;;;;;;;2.2;2;;;;;;;17.42;99.61426;95582.11;;;;
2022/06/06 06:29:54;;;;;;;2.2;2;;;;;;;17.42;99.61426;95582.11;;;;